createdAt,value
2023-02-11T00:04:00.900Z,5.60
2023-02-11T00:14:00.461Z,3.70
2023-02-11T00:24:00.671Z,2.70
2023-02-11T00:34:00.592Z,2.70
2023-02-11T00:44:00.584Z,4.20
2023-02-11T00:54:00.159Z,4.20
2023-02-11T01:04:01.510Z,2.60
2023-02-11T01:13:59.989Z,4.70
2023-02-11T01:24:00.674Z,3.60
2023-02-11T01:33:59.833Z,3.30
2023-02-11T01:43:59.899Z,3.70
2023-02-11T01:53:59.934Z,2.60
2023-02-11T02:03:59.434Z,4.20
2023-02-11T02:13:59.419Z,3.20
2023-02-11T02:23:59.291Z,2.40
2023-02-11T02:33:59.205Z,3.30
2023-02-11T02:43:59.178Z,2.90
2023-02-11T02:53:59.123Z,3.00
2023-02-11T03:03:59.077Z,1.80
2023-02-11T03:13:58.939Z,4.30
2023-02-11T03:23:58.691Z,3.00
2023-02-11T03:33:58.900Z,2.00
2023-02-11T03:43:58.607Z,1.70
2023-02-11T03:53:58.694Z,2.40
2023-02-11T04:03:58.356Z,3.00
2023-02-11T04:13:58.348Z,3.30
2023-02-11T04:23:58.306Z,4.20
2023-02-11T04:33:58.268Z,3.10
2023-02-11T04:43:58.169Z,4.10
2023-02-11T04:53:58.119Z,1.90
2023-02-11T05:03:57.566Z,2.20
2023-02-11T05:13:57.942Z,4.40
2023-02-11T05:23:58.398Z,3.90
2023-02-11T05:33:58.726Z,2.00
2023-02-11T05:43:58.798Z,3.80
2023-02-11T05:53:58.825Z,3.50
2023-02-11T06:03:57.873Z,2.30
2023-02-11T06:13:58.493Z,2.50
2023-02-11T06:23:58.525Z,2.20
2023-02-11T06:33:58.808Z,6.40
2023-02-11T06:43:58.101Z,4.30
2023-02-11T06:53:58.180Z,3.40
2023-02-11T07:03:57.349Z,4.00
2023-02-11T07:13:57.316Z,6.00
2023-02-11T07:23:57.565Z,5.20
2023-02-11T07:33:57.138Z,6.10
2023-02-11T07:43:57.727Z,8.50
2023-02-11T07:53:57.362Z,8.00
2023-02-11T08:03:57.431Z,10.30
2023-02-11T08:13:57.557Z,8.50
2023-02-11T08:23:56.357Z,9.40
2023-02-11T08:33:57.207Z,7.30
2023-02-11T08:43:55.989Z,7.60
2023-02-11T08:53:56.381Z,9.70
2023-02-11T09:03:56.703Z,10.00
2023-02-11T09:13:56.039Z,7.40
2023-02-11T09:23:55.926Z,7.20
2023-02-11T09:33:56.649Z,11.60
2023-02-11T09:43:56.260Z,12.20
2023-02-11T09:53:55.399Z,7.40
2023-02-11T10:03:56.329Z,9.90
2023-02-11T10:13:55.939Z,9.80
2023-02-11T10:23:55.298Z,15.10
2023-02-11T10:33:55.747Z,9.70
2023-02-11T10:43:55.847Z,14.90
2023-02-11T10:53:55.987Z,10.70
2023-02-11T11:03:53.951Z,13.10
2023-02-11T11:13:54.751Z,10.60
2023-02-11T11:23:55.493Z,15.10
2023-02-11T11:33:54.470Z,9.30
2023-02-11T11:43:54.458Z,14.50
2023-02-11T11:53:54.856Z,13.60
2023-02-11T12:03:54.001Z,13.50
2023-02-11T12:13:53.903Z,12.90
2023-02-11T12:23:54.776Z,13.00
2023-02-11T12:33:53.691Z,14.70
2023-02-11T12:43:53.989Z,15.00
2023-02-11T12:53:54.328Z,15.30
2023-02-11T13:03:53.112Z,14.70
2023-02-11T13:13:52.701Z,11.40
2023-02-11T13:23:52.798Z,11.50
2023-02-11T13:33:52.509Z,15.70
2023-02-11T13:43:52.706Z,13.50
2023-02-11T13:53:52.200Z,11.80
2023-02-11T14:03:52.373Z,13.40
2023-02-11T14:13:51.987Z,11.20
2023-02-11T14:23:52.551Z,14.60
2023-02-11T14:33:53.264Z,15.20
2023-02-11T14:43:53.410Z,10.40
2023-02-11T14:53:52.550Z,14.50
2023-02-11T15:03:52.639Z,16.90
2023-02-11T15:13:53.700Z,10.80
2023-02-11T15:23:51.262Z,11.40
2023-02-11T15:33:51.572Z,13.10
2023-02-11T15:43:52.189Z,13.50
2023-02-11T15:53:51.322Z,11.20
2023-02-11T16:03:51.035Z,10.90
2023-02-11T16:13:50.811Z,12.10
2023-02-11T16:23:50.918Z,11.50
2023-02-11T16:33:50.613Z,10.20
2023-02-11T16:43:50.710Z,37.10
2023-02-11T16:53:50.532Z,19.70
2023-02-11T17:03:50.637Z,16.30
2023-02-11T17:13:50.254Z,13.60
2023-02-11T17:23:50.335Z,12.00
2023-02-11T17:33:49.995Z,10.20
2023-02-11T17:43:50.154Z,10.90
2023-02-11T17:53:49.801Z,14.70
2023-02-11T18:03:49.924Z,15.50
2023-02-11T18:13:49.668Z,11.20
2023-02-11T18:23:49.869Z,16.60
2023-02-11T18:33:49.560Z,13.40
2023-02-11T18:43:49.226Z,13.70
2023-02-11T18:53:49.406Z,14.00
2023-02-11T19:03:49.034Z,19.70
2023-02-11T19:13:49.157Z,11.60
2023-02-11T19:23:48.737Z,12.30
2023-02-11T19:33:49.697Z,10.50
2023-02-11T19:43:50.068Z,11.00
2023-02-11T19:53:50.341Z,11.20
2023-02-11T20:03:49.950Z,9.80
2023-02-11T20:13:50.102Z,12.60
2023-02-11T20:23:49.751Z,11.80
2023-02-11T20:33:49.858Z,10.00
2023-02-11T20:43:49.457Z,10.90
2023-02-11T20:53:49.563Z,10.50
2023-02-11T21:03:49.330Z,11.90
2023-02-11T21:13:48.057Z,11.30
2023-02-11T21:23:48.646Z,9.90
2023-02-11T21:33:48.530Z,12.80
2023-02-11T21:43:48.290Z,8.60
2023-02-11T21:53:49.131Z,8.50
2023-02-11T22:03:48.761Z,10.70
2023-02-11T22:13:47.815Z,7.80
2023-02-11T22:23:48.530Z,8.70
2023-02-11T22:33:48.608Z,7.20
2023-02-11T22:43:48.273Z,8.60
2023-02-11T22:53:48.375Z,8.60
2023-02-11T23:03:48.393Z,7.70
2023-02-11T23:13:47.979Z,9.00
2023-02-11T23:23:47.338Z,9.20
2023-02-11T23:33:46.568Z,8.20
2023-02-11T23:43:47.549Z,9.20
2023-02-11T23:53:46.873Z,7.80
